Time;durP1;ratioP1;P1;durP2;ratioP2;P2;SDS_P1;SDS_P2;PMS_P1;PMS_P2;Temp;Humidity;BMP_temperature;BMP_pressure;BME280_temperature;BME280_humidity;BME280_pressure;Samples;Min_cycle;Max_cycle;Signal;HPM_P1;HPM_P2
2023/09/20 00:00:55;;;;;;;4.85;1.95;;;19.00;78.20;;;;;;5044899;28;20025;-89
2023/09/20 00:03:20;;;;;;;4.78;2.03;;;19.00;78.20;;;;;;5034825;28;20032;-89
2023/09/20 00:05:49;;;;;;;5.03;1.98;;;19.00;78.20;;;;;;5035048;28;20370;-89
2023/09/20 00:08:15;;;;;;;6.95;2.22;;;19.00;78.20;;;;;;5035584;28;20534;-89
2023/09/20 00:10:40;;;;;;;4.63;2.00;;;19.00;78.20;;;;;;5039656;28;20116;-89
2023/09/20 00:13:09;;;;;;;4.45;1.80;;;19.00;78.20;;;;;;5041372;28;20021;-88
2023/09/20 00:15:35;;;;;;;4.35;2.00;;;19.00;78.20;;;;;;5029607;28;20890;-89
2023/09/20 00:18:00;;;;;;;5.38;2.17;;;19.00;78.20;;;;;;5040478;28;20232;-89
2023/09/20 00:20:26;;;;;;;5.93;2.17;;;19.00;78.10;;;;;;5028613;28;20272;-90
2023/09/20 00:22:52;;;;;;;4.65;2.10;;;19.00;78.20;;;;;;5028154;28;20091;-90
2023/09/20 00:25:17;;;;;;;4.25;1.90;;;19.00;78.20;;;;;;5031562;28;20163;-88
2023/09/20 00:27:45;;;;;;;4.53;2.10;;;19.00;78.20;;;;;;5035415;28;20094;-89
2023/09/20 00:30:14;;;;;;;6.53;1.95;;;19.00;78.20;;;;;;5046987;28;20455;-87
2023/09/20 00:32:42;;;;;;;7.55;2.35;;;19.10;78.20;;;;;;5034438;28;20025;-87
2023/09/20 00:35:13;;;;;;;4.97;2.00;;;19.10;78.20;;;;;;5033882;28;20032;-89
2023/09/20 00:37:43;;;;;;;7.50;2.40;;;19.10;78.20;;;;;;5035355;28;20048;-89
2023/09/20 00:40:16;;;;;;;4.88;1.80;;;19.10;78.20;;;;;;5039053;28;20037;-88
2023/09/20 00:42:44;;;;;;;3.80;2.17;;;19.10;78.20;;;;;;5026348;28;20395;-90
2023/09/20 00:45:09;;;;;;;4.90;2.08;;;19.10;78.30;;;;;;5035231;28;20034;-90
2023/09/20 00:47:40;;;;;;;6.32;2.50;;;19.10;78.30;;;;;;5030985;28;20302;-88
2023/09/20 00:50:12;;;;;;;5.10;1.83;;;19.10;78.40;;;;;;5026404;28;20083;-90
2023/09/20 00:52:41;;;;;;;5.05;2.70;;;19.10;78.30;;;;;;5037168;28;20029;-89
2023/09/20 00:55:18;;;;;;;7.20;2.67;;;19.10;78.30;;;;;;5035876;28;20111;-89
2023/09/20 00:57:46;;;;;;;5.28;2.22;;;19.00;78.40;;;;;;5040830;28;20160;-89
2023/09/20 01:00:21;;;;;;;8.35;2.60;;;19.00;78.60;;;;;;5026688;28;20095;-88
2023/09/20 01:03:00;;;;;;;5.82;2.42;;;19.00;78.70;;;;;;5037007;28;20029;-88
2023/09/20 01:05:26;;;;;;;5.22;2.15;;;19.00;78.80;;;;;;5031496;28;20056;-88
2023/09/20 01:07:57;;;;;;;4.53;2.15;;;19.00;78.80;;;;;;5041322;28;20383;-89
2023/09/20 01:10:24;;;;;;;6.22;2.00;;;19.00;78.80;;;;;;5033194;28;20043;-89
2023/09/20 01:12:56;;;;;;;5.63;2.70;;;19.00;78.80;;;;;;5025987;28;20041;-90
2023/09/20 01:15:23;;;;;;;4.50;2.10;;;19.00;78.80;;;;;;5036620;28;20052;-90
2023/09/20 01:17:58;;;;;;;4.75;2.50;;;19.00;78.80;;;;;;5029580;28;20075;-89
2023/09/20 01:20:25;;;;;;;5.93;2.47;;;19.00;78.80;;;;;;5034484;28;20425;-92
2023/09/20 01:22:54;;;;;;;6.03;2.60;;;19.00;78.90;;;;;;5032163;28;20018;-89
2023/09/20 01:25:22;;;;;;;8.20;2.85;;;18.90;79.00;;;;;;5044052;28;20017;-90
2023/09/20 01:27:49;;;;;;;6.63;2.25;;;18.90;79.10;;;;;;5039892;28;20021;-88
2023/09/20 01:30:18;;;;;;;7.90;2.60;;;18.80;79.20;;;;;;5026019;28;20053;-90
2023/09/20 01:32:44;;;;;;;5.35;2.05;;;18.80;79.30;;;;;;5032986;28;20108;-91
2023/09/20 01:35:10;;;;;;;7.22;2.80;;;18.70;79.40;;;;;;5037489;28;20108;-90
2023/09/20 01:37:37;;;;;;;5.60;2.00;;;18.70;79.50;;;;;;5031924;28;20502;-91
2023/09/20 01:40:15;;;;;;;6.28;2.30;;;18.70;79.60;;;;;;5038153;28;20033;-90
2023/09/20 01:42:48;;;;;;;8.55;2.80;;;18.60;79.80;;;;;;5029606;28;20060;-90
2023/09/20 01:45:16;;;;;;;6.15;2.03;;;18.50;79.80;;;;;;5038943;28;20060;-89
2023/09/20 01:47:53;;;;;;;8.10;2.42;;;18.50;80.00;;;;;;5029280;28;20333;-91
2023/09/20 01:50:23;;;;;;;4.53;2.25;;;18.50;80.10;;;;;;5039108;28;20071;-91
2023/09/20 01:52:57;;;;;;;5.03;2.38;;;18.40;80.30;;;;;;5031172;28;20372;-89
2023/09/20 01:55:28;;;;;;;6.53;2.35;;;18.40;80.40;;;;;;5029315;28;20086;-89
2023/09/20 01:57:55;;;;;;;4.05;1.88;;;18.40;80.60;;;;;;5032615;28;20100;-92
2023/09/20 02:00:23;;;;;;;6.75;2.40;;;18.30;80.80;;;;;;5028933;28;20032;-90
2023/09/20 02:02:51;;;;;;;5.65;2.38;;;18.30;81.00;;;;;;5022129;28;20070;-90
2023/09/20 02:05:17;;;;;;;8.40;2.80;;;18.20;81.20;;;;;;5021645;28;20026;-91
2023/09/20 02:07:45;;;;;;;4.82;2.13;;;18.20;81.40;;;;;;5030795;28;20026;-91
2023/09/20 02:10:11;;;;;;;5.63;2.10;;;18.10;81.40;;;;;;5035054;28;20021;-91
2023/09/20 02:12:36;;;;;;;5.05;2.20;;;18.20;81.60;;;;;;5028947;28;20028;-90
2023/09/20 02:15:07;;;;;;;5.88;2.22;;;18.10;81.60;;;;;;5033720;28;20037;-90
2023/09/20 02:17:35;;;;;;;5.82;2.05;;;18.10;81.70;;;;;;5028323;28;20033;-89
2023/09/20 02:20:08;;;;;;;7.07;2.33;;;18.10;81.80;;;;;;5028820;28;20022;-89
2023/09/20 02:22:35;;;;;;;6.03;2.15;;;18.10;81.90;;;;;;5030517;28;20583;-88
2023/09/20 02:25:01;;;;;;;5.68;2.22;;;18.10;82.00;;;;;;5028727;28;20156;-86
2023/09/20 02:27:27;;;;;;;6.28;2.22;;;18.10;82.00;;;;;;5027623;28;20476;-89
2023/09/20 02:29:53;;;;;;;5.63;2.40;;;18.10;82.10;;;;;;5025999;28;20040;-90
2023/09/20 02:32:18;;;;;;;5.13;2.10;;;18.00;82.20;;;;;;5030227;28;20017;-87
2023/09/20 02:34:44;;;;;;;5.82;2.17;;;18.00;82.30;;;;;;5029331;28;20361;-88
2023/09/20 02:37:10;;;;;;;5.80;2.38;;;18.00;82.30;;;;;;5025433;28;20029;-88
2023/09/20 02:39:36;;;;;;;6.75;2.20;;;18.00;82.50;;;;;;5030601;28;20087;-88
2023/09/20 02:42:01;;;;;;;5.80;2.00;;;18.00;82.60;;;;;;5030346;28;20033;-87
2023/09/20 02:44:27;;;;;;;5.20;1.80;;;17.90;82.70;;;;;;5027292;28;20109;-88
2023/09/20 02:46:53;;;;;;;5.45;2.17;;;17.90;82.70;;;;;;5057361;28;20131;-89
2023/09/20 02:49:20;;;;;;;4.75;2.00;;;17.90;82.70;;;;;;5034976;28;20562;-88
2023/09/20 02:51:47;;;;;;;6.15;2.00;;;17.90;82.70;;;;;;5030218;28;20057;-89
2023/09/20 02:54:13;;;;;;;5.57;2.30;;;17.90;82.80;;;;;;5027143;28;20025;-87
2023/09/20 02:56:39;;;;;;;3.95;1.80;;;17.90;83.00;;;;;;5028223;28;20026;-89
2023/09/20 02:59:07;;;;;;;6.00;2.40;;;17.90;83.10;;;;;;5027998;28;20028;-88
2023/09/20 03:01:33;;;;;;;6.60;2.10;;;17.80;84.00;;;;;;5030179;28;20136;-90
2023/09/20 03:03:58;;;;;;;6.05;3.10;;;17.80;83.40;;;;;;5030027;28;20112;-89
2023/09/20 03:06:24;;;;;;;4.93;1.88;;;17.80;83.60;;;;;;5043462;28;20025;-88
2023/09/20 03:08:51;;;;;;;7.55;2.63;;;17.80;83.90;;;;;;5026448;28;20047;-89
2023/09/20 03:11:21;;;;;;;6.50;2.20;;;17.70;84.20;;;;;;5027895;28;20042;-89
2023/09/20 03:13:47;;;;;;;4.38;2.00;;;17.70;84.30;;;;;;5024568;28;20037;-91
2023/09/20 03:16:18;;;;;;;6.20;2.42;;;17.70;84.30;;;;;;5039133;28;20037;-89
2023/09/20 03:18:45;;;;;;;4.37;1.90;;;17.70;84.50;;;;;;5030630;28;20030;-89
2023/09/20 03:21:11;;;;;;;5.03;2.38;;;17.60;84.60;;;;;;5039418;28;20043;-90
2023/09/20 03:23:37;;;;;;;6.93;2.13;;;17.50;85.30;;;;;;5036994;28;20025;-89
2023/09/20 03:26:04;;;;;;;6.20;2.35;;;17.60;85.00;;;;;;5037321;28;20459;-89
2023/09/20 03:28:33;;;;;;;5.13;2.50;;;17.50;85.10;;;;;;5028640;28;20041;-90
2023/09/20 03:31:02;;;;;;;7.85;2.75;;;17.50;85.20;;;;;;5030795;28;20472;-89
2023/09/20 03:33:31;;;;;;;5.47;2.30;;;17.50;85.30;;;;;;5037488;28;20048;-89
2023/09/20 03:35:58;;;;;;;4.82;2.08;;;17.50;85.60;;;;;;5033903;28;20299;-90
2023/09/20 03:38:24;;;;;;;5.03;2.50;;;17.50;85.60;;;;;;5037093;28;20387;-89
2023/09/20 03:40:50;;;;;;;5.18;2.40;;;17.50;85.70;;;;;;5033358;28;20021;-89
2023/09/20 03:43:15;;;;;;;4.38;2.08;;;17.50;85.80;;;;;;5050365;28;20048;-90
2023/09/20 03:45:41;;;;;;;4.90;2.00;;;17.40;85.80;;;;;;5054473;28;20080;-90
2023/09/20 03:48:07;;;;;;;4.55;2.03;;;17.50;85.80;;;;;;5039496;28;20030;-91
2023/09/20 03:50:33;;;;;;;4.25;2.33;;;17.50;85.80;;;;;;5041604;28;20028;-87
2023/09/20 03:53:00;;;;;;;5.53;2.28;;;17.50;85.80;;;;;;5029616;28;20017;-87
2023/09/20 03:55:26;;;;;;;3.95;2.05;;;17.50;85.90;;;;;;5030425;28;20037;-87
2023/09/20 03:57:52;;;;;;;4.07;2.10;;;17.50;85.90;;;;;;5035229;28;20025;-88
2023/09/20 04:00:24;;;;;;;6.25;2.55;;;17.50;85.90;;;;;;5048632;28;20067;-87
2023/09/20 04:02:53;;;;;;;4.07;2.20;;;17.50;85.90;;;;;;5038348;28;20018;-88
2023/09/20 04:05:20;;;;;;;5.43;2.28;;;17.60;86.10;;;;;;5042269;28;20029;-88
2023/09/20 04:07:47;;;;;;;5.63;2.20;;;17.60;86.10;;;;;;5031652;28;20075;-87
2023/09/20 04:10:15;;;;;;;6.10;2.40;;;17.60;86.00;;;;;;5038461;28;20025;-88
2023/09/20 04:12:41;;;;;;;5.13;2.28;;;17.60;86.10;;;;;;5042884;28;20032;-88
2023/09/20 04:15:08;;;;;;;5.75;2.20;;;17.60;86.20;;;;;;5028226;28;20037;-89
2023/09/20 04:17:38;;;;;;;5.18;2.40;;;17.60;86.20;;;;;;5027466;28;20029;-87
2023/09/20 04:20:05;;;;;;;3.40;1.90;;;17.60;86.70;;;;;;5028213;28;20514;-88
2023/09/20 04:22:32;;;;;;;5.50;1.95;;;17.70;86.10;;;;;;5037356;28;20031;-88
2023/09/20 04:25:01;;;;;;;5.75;2.33;;;17.70;86.70;;;;;;5030909;28;20029;-89
2023/09/20 04:27:31;;;;;;;5.47;2.20;;;17.80;86.20;;;;;;5032528;28;20387;-87
2023/09/20 04:29:57;;;;;;;4.97;2.60;;;17.70;86.10;;;;;;5031392;28;20037;-86
2023/09/20 04:32:23;;;;;;;5.78;2.60;;;17.80;86.30;;;;;;5029966;28;20032;-87
2023/09/20 04:34:53;;;;;;;5.00;2.10;;;17.80;86.30;;;;;;5044450;28;20483;-86
2023/09/20 04:37:20;;;;;;;5.40;2.22;;;17.80;86.30;;;;;;5034163;28;20444;-85
2023/09/20 04:39:47;;;;;;;5.15;2.42;;;17.80;86.40;;;;;;5033815;28;20028;-87
2023/09/20 04:42:13;;;;;;;6.00;2.25;;;17.80;86.80;;;;;;5042109;28;20036;-86
2023/09/20 04:44:39;;;;;;;7.13;2.90;;;17.70;86.90;;;;;;5037888;28;20375;-87
2023/09/20 04:47:05;;;;;;;5.82;2.55;;;17.70;87.10;;;;;;5038573;28;20568;-87
2023/09/20 04:49:30;;;;;;;7.72;2.90;;;17.70;87.30;;;;;;5036621;28;20029;-88
2023/09/20 04:52:00;;;;;;;7.57;2.90;;;17.70;87.30;;;;;;5030209;28;20030;-88
2023/09/20 04:54:28;;;;;;;5.22;2.55;;;17.70;87.30;;;;;;5028995;28;20430;-86
2023/09/20 04:56:54;;;;;;;4.93;2.60;;;17.60;87.40;;;;;;5042880;28;20025;-86
2023/09/20 04:59:20;;;;;;;6.10;2.50;;;17.60;87.40;;;;;;5034515;28;20021;-86
2023/09/20 05:01:49;;;;;;;5.35;2.60;;;17.70;87.40;;;;;;5033933;28;20072;-88
2023/09/20 05:04:15;;;;;;;7.15;2.60;;;17.60;87.40;;;;;;5040505;28;20059;-86
2023/09/20 05:06:42;;;;;;;5.30;2.45;;;17.60;87.50;;;;;;5035254;28;20057;-86
2023/09/20 05:09:11;;;;;;;5.28;2.40;;;17.60;87.50;;;;;;5043479;28;20498;-88
2023/09/20 05:11:36;;;;;;;5.43;2.25;;;17.60;87.60;;;;;;5030934;28;20033;-88
2023/09/20 05:14:05;;;;;;;6.90;2.40;;;17.60;87.60;;;;;;5032016;28;20021;-88
2023/09/20 05:16:32;;;;;;;5.78;2.88;;;17.60;87.70;;;;;;5041052;28;20082;-88
2023/09/20 05:18:57;;;;;;;8.10;3.03;;;17.50;87.90;;;;;;5043896;28;20474;-89
2023/09/20 05:21:23;;;;;;;6.53;2.58;;;17.50;88.10;;;;;;5042051;28;20017;-88
2023/09/20 05:23:49;;;;;;;5.40;2.50;;;17.50;88.20;;;;;;5038370;28;20022;-87
2023/09/20 05:26:14;;;;;;;5.43;2.50;;;17.50;88.30;;;;;;5037561;28;20051;-89
2023/09/20 05:28:40;;;;;;;6.25;2.40;;;17.40;88.20;;;;;;5040128;28;20364;-87
2023/09/20 05:31:06;;;;;;;4.80;2.72;;;17.40;88.20;;;;;;5035373;28;20029;-89
2023/09/20 05:33:33;;;;;;;7.10;2.47;;;17.40;88.40;;;;;;5027721;28;20013;-87
2023/09/20 05:35:58;;;;;;;6.50;2.78;;;17.40;88.40;;;;;;5027057;28;20082;-89
2023/09/20 05:38:27;;;;;;;7.63;2.90;;;17.40;88.50;;;;;;5026465;28;20124;-87
2023/09/20 05:40:53;;;;;;;9.45;2.60;;;17.40;88.60;;;;;;5027668;28;20032;-93
2023/09/20 05:43:19;;;;;;;6.07;2.55;;;17.40;88.60;;;;;;5036466;28;20418;-90
2023/09/20 05:45:45;;;;;;;8.35;3.05;;;17.40;88.60;;;;;;5031181;28;20473;-90
2023/09/20 05:48:12;;;;;;;5.47;2.47;;;17.50;89.20;;;;;;5026873;28;20040;-88
2023/09/20 05:50:38;;;;;;;7.13;2.70;;;17.50;88.50;;;;;;5030032;28;20108;-89
2023/09/20 05:53:11;;;;;;;5.15;2.40;;;17.60;88.50;;;;;;5026901;28;20168;-88
2023/09/20 05:55:38;;;;;;;6.82;2.63;;;17.60;88.30;;;;;;5031813;28;20381;-88
2023/09/20 05:58:05;;;;;;;4.55;2.22;;;17.70;88.20;;;;;;5038953;28;20108;-91
2023/09/20 06:00:33;;;;;;;4.93;2.33;;;17.70;88.20;;;;;;5032538;28;20032;-91
2023/09/20 06:03:07;;;;;;;7.78;3.25;;;17.80;88.80;;;;;;5032614;28;20033;-90
2023/09/20 06:05:35;;;;;;;6.68;2.25;;;18.40;86.90;;;;;;5036994;28;20021;-91
2023/09/20 06:08:01;;;;;;;7.60;2.63;;;19.30;83.40;;;;;;5039299;28;20040;-90
2023/09/20 06:10:26;;;;;;;3.83;2.10;;;19.90;80.50;;;;;;5035319;28;20025;-91
2023/09/20 06:12:52;;;;;;;5.50;2.70;;;19.60;80.10;;;;;;5034425;28;20064;-91
2023/09/20 06:15:18;;;;;;;5.32;2.25;;;19.40;80.40;;;;;;5035625;28;20060;-92
2023/09/20 06:17:47;;;;;;;5.20;2.33;;;19.10;81.20;;;;;;5041013;28;20041;-90
2023/09/20 06:20:19;;;;;;;4.68;2.35;;;19.10;81.70;;;;;;5031185;28;20468;-90
2023/09/20 06:22:46;;;;;;;;;;;18.90;81.90;;;;;;5038908;28;20043;-90
2023/09/20 06:25:12;;;;;;;5.72;2.58;;;18.80;82.40;;;;;;5034960;28;19909;-92
2023/09/20 06:27:40;;;;;;;5.90;2.30;;;18.80;82.90;;;;;;5046862;28;20048;-90
2023/09/20 06:30:14;;;;;;;5.53;2.10;;;18.80;83.20;;;;;;5041719;28;20057;-95
2023/09/20 06:32:42;;;;;;;6.32;2.55;;;18.90;83.20;;;;;;5036386;28;20021;-92
2023/09/20 06:35:09;;;;;;;5.20;2.63;;;18.90;82.80;;;;;;5040331;28;20045;-94
2023/09/20 06:37:35;;;;;;;4.10;2.58;;;18.90;82.90;;;;;;5032632;28;20036;-92
2023/09/20 06:40:03;;;;;;;4.00;2.10;;;18.90;82.90;;;;;;5039300;28;20111;-93
2023/09/20 06:42:30;;;;;;;9.63;3.28;;;18.90;83.00;;;;;;5045902;28;20029;-90
2023/09/20 06:44:56;;;;;;;5.35;2.40;;;18.90;83.00;;;;;;5046945;28;20017;-93
2023/09/20 06:47:22;;;;;;;4.45;2.10;;;18.90;83.10;;;;;;5027642;28;20021;-92
2023/09/20 06:49:48;;;;;;;5.03;2.45;;;18.90;83.20;;;;;;5044483;28;20024;-95
2023/09/20 06:52:14;;;;;;;6.13;2.45;;;18.90;83.10;;;;;;5049418;28;20030;-96
2023/09/20 06:54:39;;;;;;;5.57;2.60;;;19.00;83.70;;;;;;5041621;28;20051;-96
2023/09/20 06:57:06;;;;;;;6.75;2.13;;;19.00;82.90;;;;;;5044856;28;20029;-96
2023/09/20 06:59:37;;;;;;;5.10;2.13;;;19.00;82.70;;;;;;5034987;28;20018;-96
2023/09/20 07:02:03;;;;;;;6.65;2.65;;;19.00;82.50;;;;;;5030944;28;20032;-95
2023/09/20 07:04:30;;;;;;;5.25;2.88;;;19.00;82.70;;;;;;5043173;28;20288;-94
2023/09/20 07:06:57;;;;;;;5.78;2.22;;;19.00;82.90;;;;;;5035443;28;20041;-92
2023/09/20 07:09:23;;;;;;;3.97;2.00;;;18.90;83.10;;;;;;5036476;28;20017;-91
2023/09/20 07:11:50;;;;;;;7.07;2.53;;;19.00;83.10;;;;;;5033214;28;20032;-93
2023/09/20 07:14:20;;;;;;;6.30;2.70;;;19.10;83.00;;;;;;5037257;28;20033;-93
2023/09/20 07:16:48;;;;;;;5.20;2.33;;;19.10;82.60;;;;;;5032552;28;20053;-93
2023/09/20 07:19:17;;;;;;;5.05;2.42;;;19.20;82.50;;;;;;5035865;28;20082;-94
2023/09/20 07:21:43;;;;;;;4.05;2.20;;;19.30;82.50;;;;;;5047513;28;20383;-92
2023/09/20 07:24:12;;;;;;;4.20;2.20;;;19.40;82.30;;;;;;5038409;28;20088;-91
2023/09/20 07:26:44;;;;;;;5.78;2.13;;;19.50;82.80;;;;;;5039317;28;20099;-90
2023/09/20 07:29:14;;;;;;;4.05;2.30;;;19.60;81.80;;;;;;5040897;28;20902;-94
2023/09/20 07:31:40;;;;;;;4.68;2.33;;;19.70;81.50;;;;;;5044989;28;20028;-94
2023/09/20 07:34:07;;;;;;;4.95;2.22;;;19.80;81.20;;;;;;5041746;28;20022;-87
2023/09/20 07:36:36;;;;;;;3.60;2.10;;;19.80;81.20;;;;;;5035242;28;20264;-86
2023/09/20 07:39:08;;;;;;;3.50;1.98;;;19.70;81.10;;;;;;5031007;28;20500;-89
2023/09/20 07:41:33;;;;;;;4.63;2.55;;;19.70;81.20;;;;;;5026323;28;20025;-91
2023/09/20 07:43:59;;;;;;;3.97;2.13;;;19.60;81.10;;;;;;5034360;28;20075;-85
2023/09/20 07:46:25;;;;;;;4.95;2.45;;;19.60;81.30;;;;;;5037196;28;20443;-85
2023/09/20 07:48:50;;;;;;;4.10;2.10;;;19.60;81.40;;;;;;5036443;28;20433;-84
2023/09/20 07:51:20;;;;;;;2.95;1.98;;;19.50;81.50;;;;;;5040815;28;20034;-84
2023/09/20 07:53:49;;;;;;;5.32;2.90;;;19.50;81.70;;;;;;5045977;28;20375;-85
2023/09/20 07:56:14;;;;;;;5.68;2.15;;;19.40;81.70;;;;;;5035202;28;20029;-87
2023/09/20 07:58:40;;;;;;;4.68;2.10;;;19.40;82.00;;;;;;5034704;28;20455;-85
2023/09/20 08:01:18;;;;;;;6.22;2.60;;;19.40;81.90;;;;;;5039955;28;20148;-84
2023/09/20 08:03:50;;;;;;;3.45;2.17;;;19.40;82.00;;;;;;5038493;28;20051;-86
2023/09/20 08:06:20;;;;;;;4.15;2.10;;;19.40;82.10;;;;;;5029635;28;20167;-85
2023/09/20 08:08:47;;;;;;;4.50;1.70;;;19.50;82.00;;;;;;5027535;28;20021;-87
2023/09/20 08:11:13;;;;;;;4.50;2.22;;;19.60;82.00;;;;;;5030577;28;20488;-88
2023/09/20 08:13:38;;;;;;;5.40;2.35;;;19.80;81.70;;;;;;5028975;28;20104;-87
2023/09/20 08:16:09;;;;;;;3.15;1.70;;;19.90;81.20;;;;;;5034655;28;20029;-85
2023/09/20 08:21:20;;;;;;;3.85;1.90;;;20.20;80.40;;;;;;5031356;28;20036;-83
2023/09/20 08:59:51;;;;;;;4.35;2.15;;;20.10;80.30;;;;;;5031790;28;20029;-85
2023/09/20 09:02:17;;;;;;;3.28;2.10;;;20.00;80.00;;;;;;5022798;28;20032;-85
2023/09/20 09:04:46;;;;;;;5.35;1.80;;;20.00;80.00;;;;;;5043575;28;20480;-87
2023/09/20 09:07:12;;;;;;;4.05;1.77;;;19.90;80.20;;;;;;5040719;28;20566;-88
2023/09/20 09:09:40;;;;;;;3.92;2.03;;;20.00;80.30;;;;;;5026738;28;20072;-87
2023/09/20 09:12:07;;;;;;;5.05;1.95;;;20.00;80.00;;;;;;5028545;28;20044;-86
2023/09/20 09:14:35;;;;;;;3.50;1.77;;;20.00;80.10;;;;;;5045773;28;20029;-91
2023/09/20 09:17:06;;;;;;;3.65;2.08;;;20.00;80.10;;;;;;5043196;28;20388;-86
2023/09/20 09:19:32;;;;;;;4.37;1.80;;;20.10;80.10;;;;;;5025953;28;20539;-84
2023/09/20 09:21:58;;;;;;;8.60;2.47;;;20.20;79.90;;;;;;5030178;28;20376;-86
2023/09/20 09:24:23;;;;;;;3.70;1.80;;;20.20;79.60;;;;;;5033091;28;20052;-86
2023/09/20 09:26:49;;;;;;;3.95;2.00;;;20.30;79.40;;;;;;5034912;28;20091;-85
2023/09/20 09:29:18;;;;;;;3.60;2.00;;;20.30;79.90;;;;;;5033979;28;20036;-88
2023/09/20 09:31:50;;;;;;;3.20;1.73;;;20.40;79.00;;;;;;5038635;28;20021;-89
2023/09/20 09:34:20;;;;;;;5.07;2.20;;;20.40;78.50;;;;;;5035723;28;20041;-89
2023/09/20 09:36:46;;;;;;;5.18;2.00;;;20.40;78.20;;;;;;5036239;28;20472;-88
2023/09/20 09:39:14;;;;;;;5.20;2.40;;;20.40;78.20;;;;;;5032072;28;20029;-87
2023/09/20 09:41:47;;;;;;;4.65;2.10;;;20.40;78.30;;;;;;5040085;28;20511;-86
2023/09/20 09:44:16;;;;;;;4.97;2.30;;;20.40;77.60;;;;;;5027868;28;20060;-87
2023/09/20 09:46:43;;;;;;;4.93;2.50;;;20.50;77.60;;;;;;5035467;28;20022;-85
2023/09/20 09:49:11;;;;;;;4.30;2.13;;;20.60;77.20;;;;;;5031763;28;20025;-88
2023/09/20 09:51:45;;;;;;;3.42;2.03;;;20.70;77.00;;;;;;5035519;28;20388;-89
2023/09/20 09:54:15;;;;;;;4.82;2.60;;;20.70;77.00;;;;;;5026913;28;20059;-84
2023/09/20 09:56:41;;;;;;;5.57;2.65;;;20.80;77.20;;;;;;5027346;28;20030;-85
2023/09/20 09:59:07;;;;;;;5.35;2.85;;;20.80;76.30;;;;;;5033652;28;20027;-88
2023/09/20 10:01:36;;;;;;;4.95;2.70;;;20.80;75.90;;;;;;5027448;28;20028;-88
2023/09/20 10:04:07;;;;;;;4.43;2.80;;;20.90;75.60;;;;;;5025435;28;20056;-87
2023/09/20 10:06:38;;;;;;;5.75;2.40;;;21.10;75.60;;;;;;5030579;28;20022;-86
2023/09/20 10:09:09;;;;;;;6.00;2.70;;;21.10;75.00;;;;;;5032232;28;20112;-93
2023/09/20 10:11:35;;;;;;;4.35;2.63;;;21.10;74.90;;;;;;5041052;28;20033;-93
2023/09/20 10:14:05;;;;;;;6.53;2.53;;;21.10;74.80;;;;;;5035859;28;20033;-93
2023/09/20 10:16:31;;;;;;;4.32;2.50;;;21.10;74.80;;;;;;5028875;28;20043;-92
2023/09/20 10:18:57;;;;;;;4.93;2.88;;;21.20;74.80;;;;;;5033631;28;20017;-93
2023/09/20 10:21:30;;;;;;;6.85;3.15;;;21.20;74.20;;;;;;5037767;28;20501;-93
2023/09/20 10:24:00;;;;;;;6.22;2.90;;;21.20;74.20;;;;;;5053108;28;20025;-90
2023/09/20 10:26:27;;;;;;;6.35;2.50;;;21.20;74.10;;;;;;5026529;28;20059;-94
2023/09/20 10:29:26;;;;;;;3.88;2.30;;;21.20;74.30;;;;;;5029176;28;20018;-88
2023/09/20 10:31:55;;;;;;;5.38;2.45;;;21.30;74.40;;;;;;5022256;28;20514;-87
2023/09/20 10:34:23;;;;;;;3.72;2.25;;;21.40;74.40;;;;;;5030652;28;20067;-85
2023/09/20 10:36:51;;;;;;;5.43;2.65;;;21.50;74.30;;;;;;5040048;28;20041;-86
2023/09/20 10:39:17;;;;;;;7.03;2.67;;;21.50;74.10;;;;;;5033394;28;20032;-86
2023/09/20 10:41:44;;;;;;;4.50;2.30;;;21.50;74.10;;;;;;5028809;28;20030;-86
2023/09/20 10:44:28;;;;;;;4.35;2.30;;;21.50;74.10;;;;;;5028568;28;20518;-86
2023/09/20 10:46:55;;;;;;;4.38;2.30;;;21.60;74.00;;;;;;5031856;28;20025;-84
2023/09/20 10:49:44;;;;;;;4.63;2.67;;;21.60;73.40;;;;;;5030312;28;20017;-89
2023/09/20 10:52:10;;;;;;;3.72;2.20;;;21.70;73.60;;;;;;5034348;28;20120;-86
2023/09/20 10:54:39;;;;;;;6.07;2.60;;;21.70;73.40;;;;;;5036635;28;20451;-87
2023/09/20 10:57:10;;;;;;;3.03;2.40;;;21.90;73.10;;;;;;5024446;28;20037;-84
2023/09/20 10:59:37;;;;;;;5.55;2.33;;;21.90;72.90;;;;;;5020555;28;20105;-86
2023/09/20 11:02:16;;;;;;;3.42;2.30;;;22.00;72.90;;;;;;5026522;28;20033;-86
2023/09/20 11:04:42;;;;;;;5.05;2.10;;;21.90;72.60;;;;;;5026770;28;20018;-88
2023/09/20 11:07:09;;;;;;;5.90;2.25;;;21.90;72.90;;;;;;5025588;28;20384;-89
2023/09/20 11:09:35;;;;;;;4.97;2.35;;;21.90;73.10;;;;;;5027168;28;20030;-84
2023/09/20 11:12:08;;;;;;;3.65;2.10;;;21.90;72.80;;;;;;5024142;28;20022;-85
2023/09/20 11:14:42;;;;;;;5.40;2.05;;;21.90;72.40;;;;;;5027634;28;20480;-87
2023/09/20 11:17:12;;;;;;;4.20;2.00;;;22.00;72.20;;;;;;5024769;28;20052;-86
2023/09/20 11:19:38;;;;;;;3.58;2.00;;;22.10;72.00;;;;;;5021542;28;20114;-89
2023/09/20 11:22:05;;;;;;;3.40;2.20;;;22.20;72.00;;;;;;5026049;28;20232;-84
2023/09/20 11:24:32;;;;;;;2.92;1.85;;;22.30;71.80;;;;;;5026041;28;20071;-84
2023/09/20 11:26:58;;;;;;;2.88;1.80;;;22.30;71.50;;;;;;5025414;28;20112;-86
2023/09/20 11:29:24;;;;;;;3.30;1.90;;;22.40;70.70;;;;;;5025878;28;20124;-86
2023/09/20 11:31:55;;;;;;;2.53;1.67;;;22.40;70.90;;;;;;5026047;28;20021;-86
2023/09/20 11:34:20;;;;;;;2.90;1.77;;;22.50;71.00;;;;;;5057763;28;20064;-86
2023/09/20 11:36:53;;;;;;;3.85;1.90;;;22.40;70.80;;;;;;5025629;28;20061;-87
2023/09/20 11:39:27;;;;;;;3.17;1.80;;;22.50;70.80;;;;;;5027172;28;20091;-88
2023/09/20 11:42:01;;;;;;;2.55;1.45;;;22.50;70.80;;;;;;5027451;28;20057;-86
2023/09/20 11:44:33;;;;;;;3.25;1.60;;;22.50;70.60;;;;;;5028179;28;20201;-87
2023/09/20 11:47:00;;;;;;;2.47;1.80;;;22.60;70.60;;;;;;5022112;28;20049;-85
2023/09/20 11:49:27;;;;;;;3.40;2.13;;;22.60;70.70;;;;;;5058566;28;20033;-84
2023/09/20 11:51:57;;;;;;;3.58;2.10;;;22.60;70.50;;;;;;5017605;28;20029;-85
2023/09/20 11:54:29;;;;;;;3.22;2.05;;;22.70;70.50;;;;;;5017767;28;20064;-85
2023/09/20 11:56:59;;;;;;;5.28;2.10;;;22.80;70.40;;;;;;5022438;28;20149;-86
2023/09/20 11:59:25;;;;;;;3.28;1.67;;;22.80;69.70;;;;;;5024977;28;20028;-84
2023/09/20 12:01:50;;;;;;;2.83;1.45;;;22.80;69.60;;;;;;5030294;28;20388;-87
2023/09/20 12:04:17;;;;;;;3.90;2.03;;;22.80;69.70;;;;;;5029507;28;20032;-87
2023/09/20 12:06:42;;;;;;;3.33;1.70;;;22.90;69.50;;;;;;5028183;28;20018;-86
2023/09/20 12:09:09;;;;;;;5.97;1.98;;;23.00;69.60;;;;;;5027099;28;20044;-88
2023/09/20 12:11:35;;;;;;;3.10;1.67;;;23.00;68.90;;;;;;5022890;28;20369;-83
2023/09/20 12:14:01;;;;;;;2.97;1.50;;;23.00;68.40;;;;;;5018159;28;20026;-87
2023/09/20 12:16:27;;;;;;;6.07;1.90;;;23.00;68.50;;;;;;5022114;28;20059;-85
2023/09/20 12:18:54;;;;;;;3.72;1.60;;;23.10;67.60;;;;;;5030436;28;20029;-86
2023/09/20 12:21:20;;;;;;;2.55;1.40;;;23.10;67.00;;;;;;5027991;28;20032;-86
2023/09/20 12:23:46;;;;;;;3.65;1.60;;;23.20;67.00;;;;;;5029266;28;20045;-91
2023/09/20 12:26:12;;;;;;;2.40;1.50;;;23.10;66.80;;;;;;5031379;28;20060;-92
2023/09/20 12:28:38;;;;;;;3.33;1.65;;;23.20;67.10;;;;;;5035288;28;20034;-91
2023/09/20 12:31:05;;;;;;;3.15;1.75;;;23.30;67.30;;;;;;5033837;28;20406;-88
2023/09/20 12:33:31;;;;;;;2.22;1.50;;;23.20;66.80;;;;;;5033510;28;20115;-85
2023/09/20 12:35:58;;;;;;;2.65;1.40;;;23.20;67.00;;;;;;5028737;28;20907;-85
2023/09/20 12:38:23;;;;;;;3.13;1.40;;;23.20;67.20;;;;;;5025148;28;20033;-89
2023/09/20 12:40:49;;;;;;;2.63;1.63;;;23.20;67.30;;;;;;5030599;28;20241;-88
2023/09/20 12:43:15;;;;;;;1.90;1.40;;;23.20;66.90;;;;;;5034304;28;20053;-86
2023/09/20 12:45:44;;;;;;;4.25;1.52;;;23.10;66.80;;;;;;5024459;28;20025;-86
2023/09/20 12:48:14;;;;;;;4.15;1.70;;;23.10;66.70;;;;;;5025426;28;20033;-82
2023/09/20 12:50:41;;;;;;;2.72;1.70;;;23.30;66.50;;;;;;5024660;28;20025;-84
2023/09/20 12:53:08;;;;;;;2.03;1.50;;;23.40;66.20;;;;;;5024131;28;20311;-84
2023/09/20 12:55:39;;;;;;;5.50;1.90;;;23.50;66.10;;;;;;5024021;28;20033;-86
2023/09/20 12:58:08;;;;;;;3.00;1.50;;;23.60;65.80;;;;;;5025874;28;20147;-86
2023/09/20 13:00:34;;;;;;;4.68;1.55;;;23.50;65.50;;;;;;5025869;28;20024;-89
2023/09/20 13:03:03;;;;;;;2.03;1.38;;;23.60;65.80;;;;;;5025350;28;20029;-85
2023/09/20 13:05:29;;;;;;;2.97;1.50;;;23.60;65.70;;;;;;5025144;28;20041;-83
2023/09/20 13:07:59;;;;;;;2.53;1.50;;;23.60;65.70;;;;;;5027626;28;20060;-87
2023/09/20 13:10:28;;;;;;;2.00;1.50;;;23.50;65.30;;;;;;5032608;28;20480;-87
2023/09/20 13:12:54;;;;;;;3.65;1.55;;;23.50;65.30;;;;;;5027567;28;20121;-92
2023/09/20 13:15:20;;;;;;;3.65;1.50;;;23.50;65.70;;;;;;5034115;28;20835;-88
2023/09/20 13:17:51;;;;;;;3.72;1.60;;;23.70;65.90;;;;;;5028185;28;20376;-89
2023/09/20 13:20:35;;;;;;;3.03;1.70;;;23.70;65.30;;;;;;5027213;28;20018;-91
2023/09/20 13:23:00;;;;;;;3.50;1.90;;;23.70;65.10;;;;;;5033279;28;20033;-96
2023/09/20 13:25:31;;;;;;;3.22;1.60;;;23.80;64.10;;;;;;5036372;28;20021;-94
2023/09/20 13:27:56;;;;;;;3.65;1.80;;;23.90;63.70;;;;;;5018856;28;20033;-90
2023/09/20 13:30:22;;;;;;;4.45;1.70;;;23.90;63.20;;;;;;5032959;28;20038;-93